createdAt,value
2017-12-06T00:00:48.450Z,17.40
2017-12-06T00:01:54.660Z,18.83
2017-12-06T00:03:00.666Z,19.75
2017-12-06T00:04:06.699Z,19.15
2017-12-06T00:05:12.627Z,17.30
2017-12-06T00:06:18.935Z,17.48
2017-12-06T00:07:25.783Z,18.55
2017-12-06T00:08:31.882Z,18.48
2017-12-06T00:09:38.018Z,18.37
2017-12-06T00:10:44.124Z,15.95
2017-12-06T00:11:50.216Z,23.30
2017-12-06T00:13:02.727Z,19.55
2017-12-06T00:14:14.208Z,17.73
2017-12-06T00:15:25.704Z,18.45
2017-12-06T00:16:31.847Z,17.27
2017-12-06T00:17:37.938Z,18.80
2017-12-06T00:18:45.043Z,18.05
2017-12-06T00:19:51.401Z,18.65
2017-12-06T00:20:57.590Z,17.85
2017-12-06T00:22:03.674Z,15.93
2017-12-06T00:23:10.730Z,17.95
2017-12-06T00:24:16.789Z,18.33
2017-12-06T00:25:23.199Z,16.35
2017-12-06T00:26:32.443Z,14.77
2017-12-06T00:27:38.632Z,17.02
2017-12-06T00:28:44.579Z,17.15
2017-12-06T00:29:50.685Z,19.37
2017-12-06T00:30:56.849Z,18.20
2017-12-06T00:32:02.895Z,17.10
2017-12-06T00:33:09.054Z,17.10
2017-12-06T00:34:15.335Z,16.95
2017-12-06T00:35:21.451Z,17.00
2017-12-06T00:36:27.561Z,16.20
2017-12-06T00:37:33.749Z,15.23
2017-12-06T00:38:39.872Z,20.67
2017-12-06T00:39:45.977Z,18.70
2017-12-06T00:40:52.098Z,17.15
2017-12-06T00:41:58.233Z,19.45
2017-12-06T00:43:04.386Z,17.95
2017-12-06T00:44:17.357Z,18.45
2017-12-06T00:45:23.141Z,18.77
2017-12-06T00:46:29.260Z,17.95
2017-12-06T00:47:35.982Z,17.75
2017-12-06T00:48:42.092Z,18.73
2017-12-06T00:49:48.277Z,20.17
2017-12-06T00:50:54.468Z,16.95
2017-12-06T00:52:03.378Z,17.23
2017-12-06T00:53:14.409Z,17.65
2017-12-06T00:54:20.535Z,18.27
2017-12-06T00:55:26.634Z,15.55
2017-12-06T00:56:32.818Z,17.00
2017-12-06T00:57:40.915Z,16.40
2017-12-06T00:58:47.100Z,21.20
2017-12-06T00:59:53.242Z,15.77
2017-12-06T01:00:59.391Z,16.60
2017-12-06T01:02:05.580Z,18.12
2017-12-06T01:03:11.796Z,15.70
2017-12-06T01:04:18.003Z,15.10
2017-12-06T01:05:24.143Z,17.95
2017-12-06T01:06:30.264Z,17.40
2017-12-06T01:07:36.211Z,19.30
2017-12-06T01:08:42.432Z,16.70
2017-12-06T01:09:48.668Z,14.98
2017-12-06T01:10:54.842Z,18.10
2017-12-06T01:12:00.995Z,18.83
2017-12-06T01:13:07.186Z,18.48
2017-12-06T01:14:13.360Z,20.15
2017-12-06T01:15:19.506Z,16.65
2017-12-06T01:16:25.589Z,16.40
2017-12-06T01:17:31.727Z,15.95
2017-12-06T01:18:37.910Z,16.45
2017-12-06T01:19:44.039Z,15.77
2017-12-06T01:20:54.027Z,14.70
2017-12-06T01:22:00.157Z,16.10
2017-12-06T01:23:06.332Z,14.27
2017-12-06T01:24:12.457Z,16.98
2017-12-06T01:25:19.825Z,16.20
2017-12-06T01:26:25.918Z,15.88
2017-12-06T01:27:32.041Z,16.25
2017-12-06T01:28:38.212Z,19.77
2017-12-06T01:29:44.179Z,16.17
2017-12-06T01:30:50.349Z,17.48
2017-12-06T01:31:56.533Z,16.08
2017-12-06T01:33:02.764Z,15.25
2017-12-06T01:34:08.890Z,17.02
2017-12-06T01:35:15.052Z,17.08
2017-12-06T01:36:21.174Z,17.95
2017-12-06T01:37:27.159Z,15.40
2017-12-06T01:38:33.352Z,18.50
2017-12-06T01:39:39.470Z,16.83
2017-12-06T01:40:45.577Z,17.67
2017-12-06T01:41:51.680Z,20.20
2017-12-06T01:42:57.841Z,18.37
2017-12-06T01:44:04.489Z,19.92
2017-12-06T01:45:10.675Z,18.75
2017-12-06T01:46:16.823Z,18.33
2017-12-06T01:47:22.761Z,17.52
2017-12-06T01:48:28.931Z,16.00
2017-12-06T01:49:35.069Z,18.10
2017-12-06T01:50:41.175Z,17.95
2017-12-06T01:51:47.320Z,16.62
2017-12-06T01:52:54.357Z,16.95
2017-12-06T01:54:00.562Z,19.25
2017-12-06T01:55:06.378Z,17.05
2017-12-06T01:56:11.594Z,16.45
2017-12-06T01:57:17.153Z,17.52
2017-12-06T01:58:22.610Z,17.25
2017-12-06T01:59:28.538Z,14.75
2017-12-06T02:00:34.675Z,15.82
2017-12-06T02:01:39.562Z,14.90
2017-12-06T02:02:47.878Z,16.33
2017-12-06T02:03:54.051Z,15.95
2017-12-06T02:05:00.195Z,15.15
2017-12-06T02:06:05.610Z,18.48
2017-12-06T02:07:18.502Z,16.05
2017-12-06T02:08:24.640Z,15.15
2017-12-06T02:09:30.872Z,15.05
2017-12-06T02:10:36.868Z,13.88
2017-12-06T02:11:42.636Z,16.17
2017-12-06T02:12:48.859Z,17.25
2017-12-06T02:13:54.943Z,14.98
2017-12-06T02:15:01.103Z,15.18
2017-12-06T02:16:06.899Z,15.45
2017-12-06T02:17:12.834Z,15.85
2017-12-06T02:18:18.782Z,14.95
2017-12-06T02:19:24.190Z,16.67
2017-12-06T02:20:29.442Z,14.55
2017-12-06T02:21:35.393Z,18.23
2017-12-06T02:22:41.156Z,14.35
2017-12-06T02:23:46.635Z,16.15
2017-12-06T02:24:52.138Z,14.45
2017-12-06T02:25:57.625Z,14.23
2017-12-06T02:27:03.040Z,14.73
2017-12-06T02:28:08.801Z,14.38
2017-12-06T02:29:13.901Z,14.85
2017-12-06T02:30:20.024Z,18.83
2017-12-06T02:31:26.168Z,14.50
2017-12-06T02:32:32.295Z,14.98
2017-12-06T02:33:38.483Z,15.10
2017-12-06T02:34:44.634Z,17.20
2017-12-06T02:35:50.590Z,15.48
2017-12-06T02:36:56.724Z,18.05
2017-12-06T02:38:02.904Z,16.92
2017-12-06T02:39:08.867Z,16.52
2017-12-06T02:40:25.947Z,17.15
2017-12-06T02:41:42.976Z,16.87
2017-12-06T02:43:00.004Z,18.25
2017-12-06T02:44:17.213Z,16.05
2017-12-06T02:45:29.181Z,17.35
2017-12-06T02:46:35.132Z,17.35
2017-12-06T02:47:41.239Z,18.70
2017-12-06T02:48:47.028Z,16.60
2017-12-06T02:49:52.933Z,16.00
2017-12-06T02:50:59.092Z,18.85
2017-12-06T02:52:05.200Z,16.48
2017-12-06T02:53:11.316Z,16.60
2017-12-06T02:54:17.473Z,18.62
2017-12-06T02:55:23.309Z,18.70
2017-12-06T02:56:29.156Z,16.75
2017-12-06T02:57:34.466Z,17.55
2017-12-06T02:58:40.595Z,17.62
2017-12-06T02:59:46.705Z,18.83
2017-12-06T03:00:52.186Z,16.30
2017-12-06T03:01:58.319Z,15.60
2017-12-06T03:03:04.432Z,15.82
2017-12-06T03:04:10.628Z,16.25
2017-12-06T03:05:16.390Z,18.37
2017-12-06T03:06:22.220Z,15.25
2017-12-06T03:07:28.407Z,15.98
2017-12-06T03:08:34.369Z,17.73
2017-12-06T03:09:40.462Z,17.02
2017-12-06T03:10:46.193Z,16.90
2017-12-06T03:11:52.148Z,17.25
2017-12-06T03:12:58.266Z,16.17
2017-12-06T03:14:04.440Z,15.73
2017-12-06T03:15:16.626Z,16.23
2017-12-06T03:16:22.763Z,18.37
2017-12-06T03:17:29.345Z,15.70
2017-12-06T03:18:35.747Z,16.17
2017-12-06T03:19:41.842Z,15.77
2017-12-06T03:20:47.935Z,16.50
2017-12-06T03:21:53.879Z,16.77
2017-12-06T03:23:00.066Z,16.15
2017-12-06T03:24:06.331Z,16.35
2017-12-06T03:25:12.472Z,17.23
2017-12-06T03:26:18.620Z,15.63
2017-12-06T03:27:24.730Z,16.08
2017-12-06T03:28:30.861Z,14.73
2017-12-06T03:29:36.969Z,15.88
2017-12-06T03:30:43.105Z,15.68
2017-12-06T03:31:49.398Z,15.50
2017-12-06T03:32:55.512Z,13.62
2017-12-06T03:34:02.081Z,14.65
2017-12-06T03:35:08.195Z,14.35
2017-12-06T03:36:14.377Z,14.55
2017-12-06T03:37:20.714Z,14.87
2017-12-06T03:38:26.852Z,13.07
2017-12-06T03:39:32.956Z,16.75
2017-12-06T03:40:39.086Z,14.10
2017-12-06T03:41:45.325Z,14.93
2017-12-06T03:42:51.480Z,14.02
2017-12-06T03:43:57.635Z,14.15
2017-12-06T03:45:03.792Z,14.43
2017-12-06T03:46:10.015Z,13.40
2017-12-06T03:47:16.129Z,12.93
2017-12-06T03:48:22.243Z,14.50
2017-12-06T03:49:28.435Z,12.98
2017-12-06T03:50:34.641Z,13.90
2017-12-06T03:51:41.402Z,14.25
2017-12-06T03:52:49.153Z,12.88
2017-12-06T03:53:55.312Z,12.37
2017-12-06T03:55:01.504Z,13.25
2017-12-06T03:56:07.633Z,15.43
2017-12-06T03:57:13.802Z,12.88
2017-12-06T03:58:19.749Z,13.80
2017-12-06T03:59:25.719Z,14.15
2017-12-06T04:00:32.170Z,12.73
2017-12-06T04:01:38.293Z,13.70
2017-12-06T04:02:44.435Z,12.55
2017-12-06T04:03:50.647Z,12.90
2017-12-06T04:04:56.475Z,13.73
2017-12-06T04:06:02.631Z,13.52
2017-12-06T04:07:08.535Z,13.00
2017-12-06T04:08:14.716Z,12.77
2017-12-06T04:09:20.854Z,13.73
2017-12-06T04:10:27.002Z,12.65
2017-12-06T04:11:35.157Z,14.18
2017-12-06T04:12:41.255Z,15.15
2017-12-06T04:13:47.364Z,13.27
2017-12-06T04:14:53.508Z,14.82
2017-12-06T04:15:59.672Z,13.40
2017-12-06T04:17:05.870Z,13.20
2017-12-06T04:18:11.989Z,13.88
2017-12-06T04:19:17.905Z,12.60
2017-12-06T04:20:24.032Z,12.93
2017-12-06T04:21:30.225Z,13.15
2017-12-06T04:22:36.121Z,14.20
2017-12-06T04:23:42.219Z,13.52
2017-12-06T04:24:48.351Z,13.68
2017-12-06T04:25:54.504Z,13.15
2017-12-06T04:27:00.672Z,12.82
2017-12-06T04:28:06.794Z,13.15
2017-12-06T04:29:12.916Z,12.48
2017-12-06T04:30:19.027Z,13.05
2017-12-06T04:31:25.132Z,12.43
2017-12-06T04:32:31.393Z,15.60
2017-12-06T04:33:37.576Z,13.45
2017-12-06T04:34:43.740Z,11.35
2017-12-06T04:35:49.869Z,13.98
2017-12-06T04:36:56.222Z,11.85
2017-12-06T04:38:02.078Z,12.68
2017-12-06T04:39:07.495Z,12.50
2017-12-06T04:40:13.438Z,12.88
2017-12-06T04:41:19.566Z,12.90
2017-12-06T04:42:25.354Z,13.07
2017-12-06T04:43:31.127Z,13.48
2017-12-06T04:44:37.295Z,10.43
2017-12-06T04:45:43.385Z,12.10
2017-12-06T04:46:49.180Z,10.65
2017-12-06T04:47:55.293Z,11.55
2017-12-06T04:49:01.448Z,10.38
2017-12-06T04:50:07.368Z,10.70
2017-12-06T04:51:13.458Z,10.18
2017-12-06T04:52:19.563Z,10.60
2017-12-06T04:53:25.296Z,11.07
2017-12-06T04:54:31.515Z,10.50
2017-12-06T04:55:42.468Z,11.30
2017-12-06T04:56:48.575Z,10.43
2017-12-06T04:57:56.106Z,10.65
2017-12-06T04:59:02.216Z,11.73
2017-12-06T05:00:08.033Z,13.25
2017-12-06T05:01:14.171Z,13.93
2017-12-06T05:02:20.346Z,11.43
2017-12-06T05:03:26.760Z,10.50
2017-12-06T05:04:33.010Z,11.98
2017-12-06T05:05:39.417Z,11.77
2017-12-06T05:06:45.915Z,12.18
2017-12-06T05:07:52.209Z,12.50
2017-12-06T05:08:58.316Z,12.75
2017-12-06T05:10:04.070Z,11.57
2017-12-06T05:11:10.173Z,11.20
2017-12-06T05:12:16.318Z,11.10
2017-12-06T05:13:22.492Z,11.23
2017-12-06T05:14:28.629Z,11.82
2017-12-06T05:15:34.748Z,11.65
2017-12-06T05:16:40.867Z,13.57
2017-12-06T05:17:49.070Z,11.93
2017-12-06T05:18:55.193Z,12.40
2017-12-06T05:20:01.305Z,11.38
2017-12-06T05:21:07.449Z,11.50
2017-12-06T05:22:13.617Z,11.10
2017-12-06T05:23:19.755Z,13.77
2017-12-06T05:24:25.961Z,12.18
2017-12-06T05:25:32.410Z,11.82
2017-12-06T05:26:38.536Z,11.95
2017-12-06T05:27:44.309Z,11.57
2017-12-06T05:28:50.427Z,15.13
2017-12-06T05:29:59.636Z,11.77
2017-12-06T05:31:05.750Z,13.00
2017-12-06T05:32:11.845Z,13.05
2017-12-06T05:33:17.814Z,13.18
2017-12-06T05:34:23.953Z,10.98
2017-12-06T05:35:30.097Z,12.93
2017-12-06T05:36:35.981Z,11.65
2017-12-06T05:37:42.149Z,14.95
2017-12-06T05:38:48.272Z,11.10
2017-12-06T05:39:54.386Z,12.32
2017-12-06T05:41:01.341Z,13.45
2017-12-06T05:42:08.588Z,12.50
2017-12-06T05:43:14.754Z,12.18
2017-12-06T05:44:20.860Z,12.98
2017-12-06T05:45:27.019Z,12.77
2017-12-06T05:46:33.173Z,14.75
2017-12-06T05:47:41.689Z,12.88
2017-12-06T05:48:48.207Z,12.85
2017-12-06T05:49:54.336Z,12.52
2017-12-06T05:51:00.474Z,12.27
2017-12-06T05:52:06.700Z,12.85
2017-12-06T05:53:12.851Z,13.20
2017-12-06T05:54:18.978Z,12.85
2017-12-06T05:55:25.106Z,16.42
2017-12-06T05:56:31.241Z,12.30
2017-12-06T05:57:37.352Z,13.82
2017-12-06T05:58:48.618Z,12.82
2017-12-06T05:59:56.308Z,12.57
2017-12-06T06:01:02.441Z,12.15
2017-12-06T06:02:09.574Z,13.60
2017-12-06T06:03:15.687Z,13.52
2017-12-06T06:04:21.835Z,14.75
2017-12-06T06:05:28.021Z,13.68
2017-12-06T06:06:34.309Z,13.27
2017-12-06T06:07:40.516Z,13.15
2017-12-06T06:08:46.677Z,13.25
2017-12-06T06:09:52.831Z,14.27
2017-12-06T06:10:58.966Z,13.15
2017-12-06T06:12:04.835Z,13.32
2017-12-06T06:13:11.212Z,15.50
2017-12-06T06:14:17.441Z,13.77
2017-12-06T06:15:23.214Z,13.50
2017-12-06T06:16:29.380Z,13.85
2017-12-06T06:17:35.582Z,13.75
2017-12-06T06:18:41.709Z,14.35
2017-12-06T06:19:47.814Z,12.50
2017-12-06T06:20:53.971Z,14.93
2017-12-06T06:22:00.138Z,12.63
2017-12-06T06:23:06.306Z,12.60
2017-12-06T06:24:12.743Z,13.38
2017-12-06T06:25:18.873Z,12.18
2017-12-06T06:26:28.093Z,13.50
2017-12-06T06:27:34.252Z,13.82
2017-12-06T06:28:40.348Z,13.15
2017-12-06T06:29:46.496Z,13.57
2017-12-06T06:30:52.661Z,13.82
2017-12-06T06:31:58.794Z,13.68
2017-12-06T06:33:04.905Z,12.60
2017-12-06T06:34:11.109Z,12.45
2017-12-06T06:35:23.903Z,14.48
2017-12-06T06:36:30.147Z,13.20
2017-12-06T06:37:40.722Z,15.05
2017-12-06T06:38:46.915Z,12.77
2017-12-06T06:39:53.020Z,13.48
2017-12-06T06:40:59.110Z,14.20
2017-12-06T06:42:05.263Z,12.00
2017-12-06T06:43:11.463Z,14.02
2017-12-06T06:44:17.627Z,14.20
2017-12-06T06:45:23.554Z,13.73
2017-12-06T06:46:29.716Z,14.25
2017-12-06T06:47:35.852Z,14.35
2017-12-06T06:48:42.038Z,14.60
2017-12-06T06:49:48.387Z,15.18
2017-12-06T06:50:54.294Z,15.38
2017-12-06T06:52:00.503Z,13.90
2017-12-06T06:53:06.781Z,14.52
2017-12-06T06:54:12.584Z,15.38
2017-12-06T06:55:18.703Z,13.48
2017-12-06T06:56:24.552Z,15.07
2017-12-06T06:57:30.419Z,15.98
2017-12-06T06:58:36.558Z,17.15
2017-12-06T06:59:42.734Z,15.10
2017-12-06T07:00:48.935Z,15.50
2017-12-06T07:01:55.097Z,15.60
2017-12-06T07:03:01.267Z,15.43
2017-12-06T07:04:07.419Z,16.35
2017-12-06T07:05:13.650Z,15.20
2017-12-06T07:06:19.613Z,15.05
2017-12-06T07:07:25.624Z,15.45
2017-12-06T07:08:31.647Z,15.40
2017-12-06T07:09:37.891Z,15.75
2017-12-06T07:10:44.092Z,17.37
2017-12-06T07:11:50.267Z,15.95
2017-12-06T07:12:56.447Z,16.15
2017-12-06T07:14:02.634Z,16.00
2017-12-06T07:15:09.098Z,16.83
2017-12-06T07:16:15.271Z,18.52
2017-12-06T07:17:21.433Z,16.02
2017-12-06T07:18:27.600Z,16.15
2017-12-06T07:19:39.226Z,16.77
2017-12-06T07:20:45.383Z,17.50
2017-12-06T07:21:50.943Z,17.87
2017-12-06T07:22:57.112Z,17.65
2017-12-06T07:24:03.283Z,16.55
2017-12-06T07:25:09.506Z,16.33
2017-12-06T07:26:15.703Z,16.12
2017-12-06T07:27:21.821Z,17.48
2017-12-06T07:28:28.038Z,16.17
2017-12-06T07:29:34.067Z,15.45
2017-12-06T07:30:40.660Z,15.30
2017-12-06T07:31:46.685Z,17.23
2017-12-06T07:32:52.872Z,15.32
2017-12-06T07:33:59.102Z,15.35
2017-12-06T07:35:04.809Z,16.02
2017-12-06T07:36:17.538Z,15.95
2017-12-06T07:37:23.155Z,16.37
2017-12-06T07:38:29.052Z,16.90
2017-12-06T07:39:36.185Z,18.33
2017-12-06T07:40:43.075Z,19.50
2017-12-06T07:41:49.413Z,17.40
2017-12-06T07:42:55.605Z,18.00
2017-12-06T07:44:02.957Z,17.45
2017-12-06T07:45:09.301Z,16.87
2017-12-06T07:46:15.546Z,17.98
2017-12-06T07:47:21.746Z,16.95
2017-12-06T07:48:27.948Z,17.20
2017-12-06T07:49:34.222Z,15.90
2017-12-06T07:50:40.394Z,15.60
2017-12-06T07:51:49.234Z,16.30
2017-12-06T07:52:55.414Z,17.20
2017-12-06T07:54:01.648Z,17.35
2017-12-06T07:55:07.819Z,17.70
2017-12-06T07:56:13.987Z,18.62
2017-12-06T07:57:20.405Z,18.00
2017-12-06T07:58:32.003Z,17.65
2017-12-06T07:59:39.081Z,18.83
2017-12-06T08:00:45.256Z,17.77
2017-12-06T08:01:51.572Z,17.60
2017-12-06T08:02:57.816Z,18.33
2017-12-06T08:04:04.325Z,16.85
2017-12-06T08:05:12.481Z,17.83
2017-12-06T08:06:19.579Z,18.48
2017-12-06T08:07:25.771Z,17.77
2017-12-06T08:08:32.137Z,17.92
2017-12-06T08:09:38.318Z,18.52
2017-12-06T08:10:44.527Z,17.95
2017-12-06T08:11:50.915Z,19.08
2017-12-06T08:12:57.098Z,17.08
2017-12-06T08:14:03.582Z,17.15
2017-12-06T08:15:09.768Z,17.60
2017-12-06T08:16:15.956Z,17.40
2017-12-06T08:17:22.375Z,17.75
2017-12-06T08:18:28.554Z,18.55
2017-12-06T08:19:34.745Z,17.92
2017-12-06T08:20:40.931Z,18.92
2017-12-06T08:21:47.058Z,16.92
2017-12-06T08:22:53.179Z,18.67
2017-12-06T08:23:59.290Z,18.90
2017-12-06T08:25:05.461Z,18.80
2017-12-06T08:26:11.994Z,18.15
2017-12-06T08:27:18.126Z,18.52
2017-12-06T08:28:24.258Z,20.40
2017-12-06T08:29:30.528Z,18.00
2017-12-06T08:30:36.294Z,18.27
2017-12-06T08:31:43.297Z,18.50
2017-12-06T08:32:49.229Z,17.10
2017-12-06T08:33:54.989Z,17.98
2017-12-06T08:35:01.106Z,18.90
2017-12-06T08:36:07.342Z,18.80
2017-12-06T08:37:13.468Z,19.00
2017-12-06T08:38:19.690Z,19.30
2017-12-06T08:39:25.842Z,18.73
2017-12-06T08:40:35.278Z,18.67
2017-12-06T08:41:41.184Z,19.70
2017-12-06T08:42:47.344Z,18.80
2017-12-06T08:43:53.476Z,19.05
2017-12-06T08:44:59.222Z,19.12
2017-12-06T08:46:05.013Z,17.80
2017-12-06T08:47:10.862Z,18.27
2017-12-06T08:48:16.622Z,19.10
2017-12-06T08:49:22.394Z,18.25
2017-12-06T08:50:28.561Z,16.87
2017-12-06T08:51:34.176Z,19.08
2017-12-06T08:52:40.342Z,17.12
2017-12-06T08:53:46.719Z,18.10
2017-12-06T08:54:52.901Z,17.52
2017-12-06T08:55:59.049Z,18.67
2017-12-06T08:57:07.190Z,17.75
2017-12-06T08:58:13.301Z,19.37
2017-12-06T08:59:19.094Z,18.25
2017-12-06T09:00:24.520Z,17.45
2017-12-06T09:01:30.411Z,17.67
2017-12-06T09:02:36.540Z,17.20
2017-12-06T09:03:41.959Z,17.05
2017-12-06T09:04:47.917Z,15.80
2017-12-06T09:05:54.067Z,16.00
2017-12-06T09:07:00.181Z,17.02
2017-12-06T09:08:06.289Z,17.90
2017-12-06T09:09:12.318Z,16.60
2017-12-06T09:10:20.276Z,16.45
2017-12-06T09:11:25.741Z,16.30
2017-12-06T09:12:30.951Z,16.52
2017-12-06T09:13:36.219Z,17.85
2017-12-06T09:14:42.333Z,17.52
2017-12-06T09:15:48.295Z,16.15
2017-12-06T09:16:54.285Z,16.08
2017-12-06T09:18:00.376Z,16.67
2017-12-06T09:19:06.494Z,16.27
2017-12-06T09:20:12.307Z,16.67
2017-12-06T09:21:18.456Z,17.67
2017-12-06T09:22:28.367Z,17.15
2017-12-06T09:23:34.166Z,17.73
2017-12-06T09:24:40.277Z,18.83
2017-12-06T09:25:46.158Z,17.92
2017-12-06T09:26:52.310Z,16.65
2017-12-06T09:27:58.455Z,17.50
2017-12-06T09:29:04.615Z,16.37
2017-12-06T09:30:10.807Z,17.40
2017-12-06T09:31:16.259Z,16.80
2017-12-06T09:32:22.287Z,17.25
2017-12-06T09:33:28.398Z,17.25
2017-12-06T09:34:35.550Z,15.32
2017-12-06T09:35:41.761Z,16.10
2017-12-06T09:36:47.873Z,15.82
2017-12-06T09:37:54.046Z,18.27
2017-12-06T09:38:59.864Z,16.67
2017-12-06T09:40:05.702Z,16.67
2017-12-06T09:41:11.289Z,16.35
2017-12-06T09:42:17.403Z,16.83
2017-12-06T09:43:23.573Z,16.77
2017-12-06T09:44:29.741Z,15.68
2017-12-06T09:45:35.866Z,18.02
2017-12-06T09:46:42.041Z,17.65
2017-12-06T09:47:48.192Z,16.67
2017-12-06T09:48:54.338Z,14.02
2017-12-06T09:50:00.490Z,16.50
2017-12-06T09:51:06.796Z,17.75
2017-12-06T09:52:12.943Z,15.52
2017-12-06T09:53:19.049Z,15.65
2017-12-06T09:54:25.208Z,16.15
2017-12-06T09:55:31.353Z,15.60
2017-12-06T09:56:37.533Z,14.30
2017-12-06T09:57:43.734Z,15.68
2017-12-06T09:58:49.874Z,15.77
2017-12-06T09:59:56.000Z,15.90
2017-12-06T10:01:05.959Z,17.05
2017-12-06T10:02:12.127Z,15.95
2017-12-06T10:03:18.240Z,15.90
2017-12-06T10:04:24.368Z,14.82
2017-12-06T10:05:30.483Z,15.88
2017-12-06T10:06:36.665Z,14.90
2017-12-06T10:07:42.810Z,16.87
2017-12-06T10:08:49.353Z,16.77
2017-12-06T10:09:55.442Z,15.38
2017-12-06T10:11:01.533Z,16.10
2017-12-06T10:12:07.671Z,16.00
2017-12-06T10:13:13.819Z,14.57
2017-12-06T10:14:19.960Z,15.60
2017-12-06T10:15:26.101Z,15.60
2017-12-06T10:16:32.230Z,16.35
2017-12-06T10:17:38.216Z,14.93
2017-12-06T10:18:44.322Z,17.30
2017-12-06T10:19:50.466Z,16.20
2017-12-06T10:20:56.224Z,18.73
2017-12-06T10:22:02.446Z,15.75
2017-12-06T10:23:08.572Z,17.05
2017-12-06T10:24:14.369Z,16.25
2017-12-06T10:25:19.628Z,15.88
2017-12-06T10:26:25.460Z,16.95
2017-12-06T10:27:31.623Z,15.05
2017-12-06T10:28:37.441Z,16.87
2017-12-06T10:29:43.567Z,15.95
2017-12-06T10:30:49.367Z,16.30
2017-12-06T10:31:55.526Z,15.90
2017-12-06T10:33:01.648Z,16.80
2017-12-06T10:34:07.823Z,15.93
2017-12-06T10:35:14.013Z,16.60
2017-12-06T10:36:20.194Z,15.93
2017-12-06T10:37:26.340Z,17.35
2017-12-06T10:38:32.649Z,16.27
2017-12-06T10:39:38.809Z,16.02
2017-12-06T10:40:44.916Z,15.65
2017-12-06T10:41:50.733Z,17.35
2017-12-06T10:42:56.861Z,16.25
2017-12-06T10:44:03.224Z,17.25
2017-12-06T10:45:09.453Z,16.80
2017-12-06T10:46:14.880Z,18.70
2017-12-06T10:47:20.876Z,16.05
2017-12-06T10:48:26.692Z,17.70
2017-12-06T10:49:32.858Z,17.27
2017-12-06T10:50:39.027Z,16.35
2017-12-06T10:51:45.180Z,16.60
2017-12-06T10:52:51.060Z,15.88
2017-12-06T10:53:57.370Z,15.20
2017-12-06T10:55:03.511Z,16.20
2017-12-06T10:56:09.631Z,15.65
2017-12-06T10:57:15.750Z,18.33
2017-12-06T10:58:21.972Z,17.65
2017-12-06T10:59:28.165Z,15.95
2017-12-06T11:00:34.145Z,17.98
2017-12-06T11:01:40.104Z,16.90
2017-12-06T11:02:46.266Z,15.75
2017-12-06T11:03:52.384Z,17.58
2017-12-06T11:04:58.543Z,17.12
2017-12-06T11:06:04.352Z,16.50
2017-12-06T11:07:10.507Z,18.48
2017-12-06T11:08:16.617Z,16.55
2017-12-06T11:09:22.826Z,16.40
2017-12-06T11:10:29.001Z,18.05
2017-12-06T11:11:35.103Z,17.98
2017-12-06T11:12:41.224Z,19.02
2017-12-06T11:13:47.334Z,16.08
2017-12-06T11:14:53.575Z,18.98
2017-12-06T11:16:02.382Z,18.73
2017-12-06T11:17:08.565Z,17.48
2017-12-06T11:18:14.744Z,16.50
2017-12-06T11:19:20.820Z,27.73
2017-12-06T11:20:27.010Z,16.67
2017-12-06T11:21:33.151Z,16.77
2017-12-06T11:22:39.338Z,16.92
2017-12-06T11:23:45.464Z,16.10
2017-12-06T11:24:51.576Z,18.05
2017-12-06T11:25:57.734Z,16.30
2017-12-06T11:27:03.847Z,17.92
2017-12-06T11:28:09.710Z,17.45
2017-12-06T11:29:15.917Z,17.00
2017-12-06T11:30:22.051Z,16.15
2017-12-06T11:31:28.216Z,15.55
2017-12-06T11:32:37.563Z,15.90
2017-12-06T11:33:43.685Z,14.52
2017-12-06T11:34:49.792Z,15.20
2017-12-06T11:35:56.019Z,16.08
2017-12-06T11:37:02.151Z,15.70
2017-12-06T11:38:08.294Z,16.92
2017-12-06T11:39:14.494Z,16.37
2017-12-06T11:40:20.964Z,16.10
2017-12-06T11:41:27.140Z,16.85
2017-12-06T11:42:33.458Z,15.25
2017-12-06T11:43:39.666Z,17.23
2017-12-06T11:44:45.784Z,15.38
2017-12-06T11:45:51.879Z,15.70
2017-12-06T11:46:58.041Z,17.10
2017-12-06T11:48:04.149Z,14.65
2017-12-06T11:49:10.278Z,16.23
2017-12-06T11:50:16.434Z,16.37
2017-12-06T11:51:22.603Z,15.50
2017-12-06T11:52:28.727Z,16.25
2017-12-06T11:53:34.937Z,17.17
2017-12-06T11:54:41.123Z,15.90
2017-12-06T11:55:47.235Z,15.65
2017-12-06T11:56:53.375Z,14.80
2017-12-06T11:57:59.521Z,16.12
2017-12-06T11:59:05.689Z,15.15
2017-12-06T12:00:11.171Z,16.02
2017-12-06T12:01:17.274Z,18.20
2017-12-06T12:02:23.393Z,18.02
2017-12-06T12:03:29.518Z,17.05
2017-12-06T12:04:35.630Z,15.90
2017-12-06T12:05:41.788Z,14.77
2017-12-06T12:06:47.959Z,16.25
2017-12-06T12:07:54.084Z,15.05
2017-12-06T12:09:00.251Z,14.73
2017-12-06T12:10:07.283Z,16.50
2017-12-06T12:11:13.453Z,16.55
2017-12-06T12:12:19.609Z,15.90
2017-12-06T12:13:25.722Z,16.40
2017-12-06T12:14:31.820Z,15.20
2017-12-06T12:15:37.818Z,16.85
2017-12-06T12:16:43.949Z,14.80
2017-12-06T12:17:50.096Z,15.90
2017-12-06T12:18:56.207Z,17.67
2017-12-06T12:20:02.111Z,15.00
2017-12-06T12:21:08.219Z,15.68
2017-12-06T12:22:14.367Z,16.20
2017-12-06T12:23:20.535Z,14.45
2017-12-06T12:24:26.712Z,16.02
2017-12-06T12:25:32.944Z,15.65
2017-12-06T12:26:39.181Z,16.35
2017-12-06T12:27:45.312Z,15.43
2017-12-06T12:28:51.429Z,14.50
2017-12-06T12:29:57.587Z,16.23
2017-12-06T12:31:03.719Z,13.85
2017-12-06T12:32:09.908Z,17.90
2017-12-06T12:33:16.144Z,14.32
2017-12-06T12:34:22.324Z,15.18
2017-12-06T12:35:28.441Z,16.50
2017-12-06T12:36:33.971Z,19.25
2017-12-06T12:37:39.244Z,15.60
2017-12-06T12:38:44.558Z,14.80
2017-12-06T12:39:49.805Z,15.85
2017-12-06T12:40:55.067Z,14.95
2017-12-06T12:42:00.107Z,14.75
2017-12-06T12:43:05.396Z,15.57
2017-12-06T12:44:10.746Z,14.43
2017-12-06T12:45:16.659Z,14.75
2017-12-06T12:46:21.954Z,15.30
2017-12-06T12:47:27.634Z,15.10
2017-12-06T12:48:32.849Z,15.40
2017-12-06T12:49:38.335Z,13.80
2017-12-06T12:50:43.623Z,14.75
2017-12-06T12:51:48.878Z,16.35
2017-12-06T12:52:54.221Z,15.77
2017-12-06T12:53:59.508Z,14.45
2017-12-06T12:55:04.979Z,14.90
2017-12-06T12:56:10.506Z,15.75
2017-12-06T12:57:15.738Z,15.18
2017-12-06T12:58:21.588Z,15.98
2017-12-06T12:59:26.906Z,15.80
2017-12-06T13:00:32.361Z,15.52
2017-12-06T13:01:37.661Z,13.27
2017-12-06T13:02:42.953Z,17.12
2017-12-06T13:03:52.119Z,17.35
2017-12-06T13:04:57.409Z,15.27
2017-12-06T13:06:02.728Z,15.50
2017-12-06T13:07:09.134Z,14.07
2017-12-06T13:08:14.388Z,14.63
2017-12-06T13:09:19.895Z,17.10
2017-12-06T13:10:25.438Z,15.38
2017-12-06T13:11:30.791Z,13.95
2017-12-06T13:12:36.207Z,16.27
2017-12-06T13:13:41.486Z,14.75
2017-12-06T13:14:47.078Z,13.95
2017-12-06T13:15:52.636Z,14.02
2017-12-06T13:16:58.122Z,14.20
2017-12-06T13:18:05.592Z,13.70
2017-12-06T13:19:11.486Z,15.23
2017-12-06T13:20:16.768Z,12.82
2017-12-06T13:21:22.143Z,14.40
2017-12-06T13:22:27.644Z,12.65
2017-12-06T13:23:32.939Z,14.20
2017-12-06T13:24:38.284Z,14.23
2017-12-06T13:25:43.374Z,12.80
2017-12-06T13:26:48.651Z,13.80
2017-12-06T13:27:53.984Z,14.05
2017-12-06T13:28:59.290Z,13.45
2017-12-06T13:30:04.623Z,15.18
2017-12-06T13:31:09.917Z,14.23
2017-12-06T13:32:16.065Z,13.43
2017-12-06T13:33:21.371Z,16.17
2017-12-06T13:34:26.906Z,14.85
2017-12-06T13:35:32.251Z,13.73
2017-12-06T13:36:38.426Z,12.77
2017-12-06T13:37:43.704Z,14.05
2017-12-06T13:38:49.138Z,14.43
2017-12-06T13:39:54.433Z,12.82
2017-12-06T13:40:59.698Z,14.43
2017-12-06T13:42:05.197Z,14.18
2017-12-06T13:43:10.497Z,13.68
2017-12-06T13:44:15.782Z,13.82
2017-12-06T13:45:21.122Z,12.90
2017-12-06T13:46:31.436Z,13.82
2017-12-06T13:47:36.707Z,16.67
2017-12-06T13:48:41.959Z,13.32
2017-12-06T13:49:47.273Z,14.25
2017-12-06T13:50:52.804Z,13.68
2017-12-06T13:51:57.954Z,13.50
2017-12-06T13:53:03.796Z,14.40
2017-12-06T13:54:09.131Z,13.38
2017-12-06T13:55:14.629Z,13.88
2017-12-06T13:56:22.951Z,13.85
2017-12-06T13:57:28.252Z,12.95
2017-12-06T13:58:33.540Z,14.32
2017-12-06T13:59:39.443Z,14.85
2017-12-06T14:00:50.244Z,12.20
2017-12-06T14:01:56.355Z,14.68
2017-12-06T14:03:02.208Z,12.05
2017-12-06T14:04:07.490Z,13.90
2017-12-06T14:05:13.258Z,13.88
2017-12-06T14:06:18.334Z,13.30
2017-12-06T14:07:24.361Z,13.00
2017-12-06T14:08:30.168Z,14.18
2017-12-06T14:09:35.839Z,14.10
2017-12-06T14:10:41.407Z,13.27
2017-12-06T14:11:46.889Z,13.43
2017-12-06T14:12:52.429Z,13.38
2017-12-06T14:13:57.991Z,13.55